sensor_id;sensor_type;location;lat;lon;timestamp;P1;durP1;ratioP1;P2;durP2;ratioP2
20629;SDS011;17386;43.846;25.950;2022-07-09T00:01:20;9.73;;;5.63;;
20629;SDS011;17386;43.846;25.950;2022-07-09T00:03:46;10.15;;;5.53;;
20629;SDS011;17386;43.846;25.950;2022-07-09T00:06:13;9.90;;;5.32;;
20629;SDS011;17386;43.846;25.950;2022-07-09T00:08:39;10.15;;;5.15;;
20629;SDS011;17386;43.846;25.950;2022-07-09T00:11:06;10.65;;;5.80;;
20629;SDS011;17386;43.846;25.950;2022-07-09T00:13:32;13.35;;;5.47;;
20629;SDS011;17386;43.846;25.950;2022-07-09T00:15:59;9.45;;;5.00;;
20629;SDS011;17386;43.846;25.950;2022-07-09T00:18:25;13.18;;;5.22;;
20629;SDS011;17386;43.846;25.950;2022-07-09T00:20:55;9.02;;;4.97;;
20629;SDS011;17386;43.846;25.950;2022-07-09T00:23:22;8.20;;;5.13;;
20629;SDS011;17386;43.846;25.950;2022-07-09T00:25:49;7.55;;;5.03;;
20629;SDS011;17386;43.846;25.950;2022-07-09T00:28:16;7.78;;;4.85;;
20629;SDS011;17386;43.846;25.950;2022-07-09T00:30:42;9.40;;;4.88;;
20629;SDS011;17386;43.846;25.950;2022-07-09T00:33:09;9.90;;;5.40;;
20629;SDS011;17386;43.846;25.950;2022-07-09T00:35:36;10.27;;;4.97;;
20629;SDS011;17386;43.846;25.950;2022-07-09T00:38:02;8.55;;;5.10;;
20629;SDS011;17386;43.846;25.950;2022-07-09T00:40:29;7.97;;;4.90;;
20629;SDS011;17386;43.846;25.950;2022-07-09T00:42:55;8.30;;;4.75;;
20629;SDS011;17386;43.846;25.950;2022-07-09T00:45:22;7.97;;;4.88;;
20629;SDS011;17386;43.846;25.950;2022-07-09T00:47:49;8.32;;;5.00;;
20629;SDS011;17386;43.846;25.950;2022-07-09T00:50:16;7.80;;;5.03;;
20629;SDS011;17386;43.846;25.950;2022-07-09T00:52:42;8.90;;;4.68;;
20629;SDS011;17386;43.846;25.950;2022-07-09T00:55:10;7.88;;;4.55;;
20629;SDS011;17386;43.846;25.950;2022-07-09T00:57:38;7.00;;;4.40;;
20629;SDS011;17386;43.846;25.950;2022-07-09T01:00:06;8.07;;;4.53;;
20629;SDS011;17386;43.846;25.950;2022-07-09T01:02:33;5.88;;;4.15;;
20629;SDS011;17386;43.846;25.950;2022-07-09T01:07:26;7.43;;;4.55;;
20629;SDS011;17386;43.846;25.950;2022-07-09T01:09:53;9.20;;;4.90;;
20629;SDS011;17386;43.846;25.950;2022-07-09T01:12:20;9.10;;;4.35;;
20629;SDS011;17386;43.846;25.950;2022-07-09T01:14:47;5.97;;;4.03;;
20629;SDS011;17386;43.846;25.950;2022-07-09T01:17:13;8.30;;;4.85;;
20629;SDS011;17386;43.846;25.950;2022-07-09T01:19:40;7.78;;;4.65;;
20629;SDS011;17386;43.846;25.950;2022-07-09T01:22:07;7.15;;;4.65;;
20629;SDS011;17386;43.846;25.950;2022-07-09T01:24:34;9.13;;;4.70;;
20629;SDS011;17386;43.846;25.950;2022-07-09T01:27:01;8.23;;;4.60;;
20629;SDS011;17386;43.846;25.950;2022-07-09T01:29:28;10.60;;;4.63;;
20629;SDS011;17386;43.846;25.950;2022-07-09T01:31:54;8.07;;;5.13;;
20629;SDS011;17386;43.846;25.950;2022-07-09T01:34:21;6.85;;;4.85;;
20629;SDS011;17386;43.846;25.950;2022-07-09T01:36:47;6.45;;;4.60;;
20629;SDS011;17386;43.846;25.950;2022-07-09T01:39:14;8.18;;;5.00;;
20629;SDS011;17386;43.846;25.950;2022-07-09T01:41:41;6.03;;;4.15;;
20629;SDS011;17386;43.846;25.950;2022-07-09T01:44:08;9.85;;;4.78;;
20629;SDS011;17386;43.846;25.950;2022-07-09T01:49:02;10.48;;;4.60;;
20629;SDS011;17386;43.846;25.950;2022-07-09T01:51:29;7.63;;;4.90;;
20629;SDS011;17386;43.846;25.950;2022-07-09T01:53:55;8.57;;;4.47;;
20629;SDS011;17386;43.846;25.950;2022-07-09T01:56:22;6.60;;;3.90;;
20629;SDS011;17386;43.846;25.950;2022-07-09T01:58:49;6.28;;;4.07;;
20629;SDS011;17386;43.846;25.950;2022-07-09T02:01:15;5.85;;;3.83;;
20629;SDS011;17386;43.846;25.950;2022-07-09T02:03:41;6.78;;;4.00;;
20629;SDS011;17386;43.846;25.950;2022-07-09T02:06:08;5.20;;;3.63;;
20629;SDS011;17386;43.846;25.950;2022-07-09T02:08:35;6.80;;;3.33;;
20629;SDS011;17386;43.846;25.950;2022-07-09T02:11:02;6.55;;;3.70;;
20629;SDS011;17386;43.846;25.950;2022-07-09T02:13:29;5.85;;;3.33;;
20629;SDS011;17386;43.846;25.950;2022-07-09T02:15:56;6.40;;;3.53;;
20629;SDS011;17386;43.846;25.950;2022-07-09T02:18:22;5.25;;;3.45;;
20629;SDS011;17386;43.846;25.950;2022-07-09T02:20:49;8.18;;;3.80;;
20629;SDS011;17386;43.846;25.950;2022-07-09T02:23:16;5.35;;;3.50;;
20629;SDS011;17386;43.846;25.950;2022-07-09T02:25:42;6.28;;;3.55;;
20629;SDS011;17386;43.846;25.950;2022-07-09T02:28:09;5.63;;;3.50;;
20629;SDS011;17386;43.846;25.950;2022-07-09T02:30:36;6.38;;;3.47;;
20629;SDS011;17386;43.846;25.950;2022-07-09T02:33:03;6.00;;;3.40;;
20629;SDS011;17386;43.846;25.950;2022-07-09T02:35:29;7.28;;;3.40;;
20629;SDS011;17386;43.846;25.950;2022-07-09T02:37:55;6.72;;;3.10;;
20629;SDS011;17386;43.846;25.950;2022-07-09T02:40:22;8.82;;;3.35;;
20629;SDS011;17386;43.846;25.950;2022-07-09T02:42:49;3.95;;;3.30;;
20629;SDS011;17386;43.846;25.950;2022-07-09T02:45:14;5.65;;;3.28;;
20629;SDS011;17386;43.846;25.950;2022-07-09T02:47:40;4.70;;;3.45;;
20629;SDS011;17386;43.846;25.950;2022-07-09T02:50:08;4.88;;;3.35;;
20629;SDS011;17386;43.846;25.950;2022-07-09T02:55:00;6.18;;;3.17;;
20629;SDS011;17386;43.846;25.950;2022-07-09T02:57:27;4.97;;;3.35;;
20629;SDS011;17386;43.846;25.950;2022-07-09T02:59:52;4.57;;;2.95;;
20629;SDS011;17386;43.846;25.950;2022-07-09T03:02:19;4.85;;;3.42;;
20629;SDS011;17386;43.846;25.950;2022-07-09T03:04:47;5.35;;;3.28;;
20629;SDS011;17386;43.846;25.950;2022-07-09T03:07:13;8.93;;;3.58;;
20629;SDS011;17386;43.846;25.950;2022-07-09T03:09:40;7.05;;;3.00;;
20629;SDS011;17386;43.846;25.950;2022-07-09T03:12:07;4.80;;;3.22;;
20629;SDS011;17386;43.846;25.950;2022-07-09T03:14:34;8.75;;;3.38;;
20629;SDS011;17386;43.846;25.950;2022-07-09T03:17:01;5.38;;;3.08;;
20629;SDS011;17386;43.846;25.950;2022-07-09T03:19:28;7.10;;;3.25;;
20629;SDS011;17386;43.846;25.950;2022-07-09T03:21:55;6.00;;;3.22;;
20629;SDS011;17386;43.846;25.950;2022-07-09T03:24:21;5.57;;;3.38;;
20629;SDS011;17386;43.846;25.950;2022-07-09T03:26:49;5.15;;;3.67;;
20629;SDS011;17386;43.846;25.950;2022-07-09T03:31:40;5.95;;;3.88;;
20629;SDS011;17386;43.846;25.950;2022-07-09T03:34:05;5.65;;;3.42;;
20629;SDS011;17386;43.846;25.950;2022-07-09T03:36:32;5.03;;;3.90;;
20629;SDS011;17386;43.846;25.950;2022-07-09T03:38:59;5.10;;;3.72;;
20629;SDS011;17386;43.846;25.950;2022-07-09T03:41:26;7.07;;;3.70;;
20629;SDS011;17386;43.846;25.950;2022-07-09T03:43:52;5.85;;;3.50;;
20629;SDS011;17386;43.846;25.950;2022-07-09T03:46:19;5.18;;;3.22;;
20629;SDS011;17386;43.846;25.950;2022-07-09T03:48:44;6.10;;;3.55;;
20629;SDS011;17386;43.846;25.950;2022-07-09T03:51:15;6.00;;;3.58;;
20629;SDS011;17386;43.846;25.950;2022-07-09T03:53:45;4.30;;;3.13;;
20629;SDS011;17386;43.846;25.950;2022-07-09T03:56:11;7.75;;;3.35;;
20629;SDS011;17386;43.846;25.950;2022-07-09T03:58:37;6.68;;;3.38;;
20629;SDS011;17386;43.846;25.950;2022-07-09T04:01:03;6.28;;;3.50;;
20629;SDS011;17386;43.846;25.950;2022-07-09T04:03:29;5.10;;;3.28;;
20629;SDS011;17386;43.846;25.950;2022-07-09T04:05:56;5.25;;;3.20;;
20629;SDS011;17386;43.846;25.950;2022-07-09T04:08:22;8.13;;;3.40;;
20629;SDS011;17386;43.846;25.950;2022-07-09T04:10:49;8.00;;;3.83;;
20629;SDS011;17386;43.846;25.950;2022-07-09T04:13:15;5.22;;;3.47;;
20629;SDS011;17386;43.846;25.950;2022-07-09T04:15:42;6.80;;;3.83;;
20629;SDS011;17386;43.846;25.950;2022-07-09T04:18:07;7.35;;;3.72;;
20629;SDS011;17386;43.846;25.950;2022-07-09T04:20:34;8.98;;;5.38;;
20629;SDS011;17386;43.846;25.950;2022-07-09T04:22:59;7.05;;;4.07;;
20629;SDS011;17386;43.846;25.950;2022-07-09T04:25:26;9.82;;;4.40;;
20629;SDS011;17386;43.846;25.950;2022-07-09T04:27:51;11.68;;;3.88;;
20629;SDS011;17386;43.846;25.950;2022-07-09T04:30:17;8.10;;;4.03;;
20629;SDS011;17386;43.846;25.950;2022-07-09T04:32:42;8.52;;;4.03;;
20629;SDS011;17386;43.846;25.950;2022-07-09T04:35:09;8.35;;;4.55;;
20629;SDS011;17386;43.846;25.950;2022-07-09T04:37:36;8.35;;;4.18;;
20629;SDS011;17386;43.846;25.950;2022-07-09T04:40:02;8.10;;;4.10;;
20629;SDS011;17386;43.846;25.950;2022-07-09T04:42:29;7.28;;;3.72;;
20629;SDS011;17386;43.846;25.950;2022-07-09T04:44:55;9.43;;;3.60;;
20629;SDS011;17386;43.846;25.950;2022-07-09T04:47:23;6.68;;;3.70;;
20629;SDS011;17386;43.846;25.950;2022-07-09T04:49:49;10.38;;;3.40;;
20629;SDS011;17386;43.846;25.950;2022-07-09T04:52:15;5.75;;;3.70;;
20629;SDS011;17386;43.846;25.950;2022-07-09T04:54:45;7.57;;;3.38;;
20629;SDS011;17386;43.846;25.950;2022-07-09T04:57:12;5.97;;;3.65;;
20629;SDS011;17386;43.846;25.950;2022-07-09T04:59:38;6.55;;;3.63;;
20629;SDS011;17386;43.846;25.950;2022-07-09T05:02:03;6.32;;;3.55;;
20629;SDS011;17386;43.846;25.950;2022-07-09T05:04:29;5.13;;;3.45;;
20629;SDS011;17386;43.846;25.950;2022-07-09T05:06:55;7.60;;;4.22;;
20629;SDS011;17386;43.846;25.950;2022-07-09T05:09:21;7.07;;;3.80;;
20629;SDS011;17386;43.846;25.950;2022-07-09T05:11:47;5.85;;;3.40;;
20629;SDS011;17386;43.846;25.950;2022-07-09T05:14:12;9.02;;;4.82;;
20629;SDS011;17386;43.846;25.950;2022-07-09T05:16:38;6.50;;;4.00;;
20629;SDS011;17386;43.846;25.950;2022-07-09T05:19:09;8.60;;;3.58;;
20629;SDS011;17386;43.846;25.950;2022-07-09T05:21:38;8.43;;;3.95;;
20629;SDS011;17386;43.846;25.950;2022-07-09T05:24:04;5.30;;;3.50;;
20629;SDS011;17386;43.846;25.950;2022-07-09T05:26:32;6.35;;;3.28;;
20629;SDS011;17386;43.846;25.950;2022-07-09T05:28:57;5.63;;;3.25;;
20629;SDS011;17386;43.846;25.950;2022-07-09T05:31:23;6.10;;;3.45;;
20629;SDS011;17386;43.846;25.950;2022-07-09T05:33:49;4.53;;;3.10;;
20629;SDS011;17386;43.846;25.950;2022-07-09T05:36:14;6.07;;;3.25;;
20629;SDS011;17386;43.846;25.950;2022-07-09T05:38:40;6.40;;;3.30;;
20629;SDS011;17386;43.846;25.950;2022-07-09T05:41:05;6.50;;;3.33;;
20629;SDS011;17386;43.846;25.950;2022-07-09T05:43:32;7.50;;;3.70;;
20629;SDS011;17386;43.846;25.950;2022-07-09T05:45:57;6.13;;;2.97;;
20629;SDS011;17386;43.846;25.950;2022-07-09T05:48:24;8.07;;;3.65;;
20629;SDS011;17386;43.846;25.950;2022-07-09T05:50:49;5.93;;;3.25;;
20629;SDS011;17386;43.846;25.950;2022-07-09T05:53:15;4.50;;;2.92;;
20629;SDS011;17386;43.846;25.950;2022-07-09T05:55:40;8.48;;;3.20;;
20629;SDS011;17386;43.846;25.950;2022-07-09T05:58:06;6.38;;;2.70;;
20629;SDS011;17386;43.846;25.950;2022-07-09T06:00:31;4.97;;;2.92;;
20629;SDS011;17386;43.846;25.950;2022-07-09T06:02:57;6.68;;;2.97;;
20629;SDS011;17386;43.846;25.950;2022-07-09T06:05:22;5.32;;;3.60;;
20629;SDS011;17386;43.846;25.950;2022-07-09T06:07:48;6.70;;;3.33;;
20629;SDS011;17386;43.846;25.950;2022-07-09T06:10:13;6.68;;;3.45;;
20629;SDS011;17386;43.846;25.950;2022-07-09T06:12:41;5.50;;;3.45;;
20629;SDS011;17386;43.846;25.950;2022-07-09T06:15:07;9.70;;;3.70;;
20629;SDS011;17386;43.846;25.950;2022-07-09T06:17:35;7.05;;;3.55;;
20629;SDS011;17386;43.846;25.950;2022-07-09T06:20:00;4.50;;;3.15;;
20629;SDS011;17386;43.846;25.950;2022-07-09T06:22:25;6.15;;;3.45;;
20629;SDS011;17386;43.846;25.950;2022-07-09T06:24:51;7.95;;;4.93;;
20629;SDS011;17386;43.846;25.950;2022-07-09T06:27:16;5.60;;;3.05;;
20629;SDS011;17386;43.846;25.950;2022-07-09T06:29:42;6.35;;;3.33;;
20629;SDS011;17386;43.846;25.950;2022-07-09T06:32:07;6.70;;;3.90;;
20629;SDS011;17386;43.846;25.950;2022-07-09T06:34:33;5.72;;;3.67;;
20629;SDS011;17386;43.846;25.950;2022-07-09T06:36:58;4.55;;;3.33;;
20629;SDS011;17386;43.846;25.950;2022-07-09T06:39:23;10.02;;;3.83;;
20629;SDS011;17386;43.846;25.950;2022-07-09T06:42:07;8.30;;;4.22;;
20629;SDS011;17386;43.846;25.950;2022-07-09T06:44:33;9.70;;;4.38;;
20629;SDS011;17386;43.846;25.950;2022-07-09T06:46:59;11.55;;;3.97;;
20629;SDS011;17386;43.846;25.950;2022-07-09T06:49:25;5.22;;;3.72;;
20629;SDS011;17386;43.846;25.950;2022-07-09T06:51:50;8.88;;;4.43;;
20629;SDS011;17386;43.846;25.950;2022-07-09T06:54:16;5.57;;;3.97;;
20629;SDS011;17386;43.846;25.950;2022-07-09T06:56:42;6.55;;;4.38;;
20629;SDS011;17386;43.846;25.950;2022-07-09T06:59:09;9.68;;;5.07;;
20629;SDS011;17386;43.846;25.950;2022-07-09T07:01:36;7.95;;;4.70;;
20629;SDS011;17386;43.846;25.950;2022-07-09T07:04:03;10.13;;;5.60;;
20629;SDS011;17386;43.846;25.950;2022-07-09T07:06:28;12.38;;;9.20;;
20629;SDS011;17386;43.846;25.950;2022-07-09T07:08:54;9.10;;;5.07;;
20629;SDS011;17386;43.846;25.950;2022-07-09T07:11:19;6.68;;;4.55;;
20629;SDS011;17386;43.846;25.950;2022-07-09T07:13:44;8.10;;;4.50;;
20629;SDS011;17386;43.846;25.950;2022-07-09T07:16:10;7.97;;;4.55;;
20629;SDS011;17386;43.846;25.950;2022-07-09T07:18:35;9.05;;;4.68;;
20629;SDS011;17386;43.846;25.950;2022-07-09T07:21:01;7.78;;;4.70;;
20629;SDS011;17386;43.846;25.950;2022-07-09T07:23:26;9.50;;;4.15;;
20629;SDS011;17386;43.846;25.950;2022-07-09T07:25:52;7.32;;;3.95;;
20629;SDS011;17386;43.846;25.950;2022-07-09T07:28:17;6.57;;;3.70;;
20629;SDS011;17386;43.846;25.950;2022-07-09T07:30:42;6.15;;;3.65;;
20629;SDS011;17386;43.846;25.950;2022-07-09T07:33:08;5.70;;;3.70;;
20629;SDS011;17386;43.846;25.950;2022-07-09T07:35:34;9.77;;;4.43;;
20629;SDS011;17386;43.846;25.950;2022-07-09T07:37:59;6.25;;;3.58;;
20629;SDS011;17386;43.846;25.950;2022-07-09T07:40:25;8.70;;;5.40;;
20629;SDS011;17386;43.846;25.950;2022-07-09T07:42:50;7.07;;;3.63;;
20629;SDS011;17386;43.846;25.950;2022-07-09T07:45:16;5.28;;;2.83;;
20629;SDS011;17386;43.846;25.950;2022-07-09T07:47:41;6.55;;;4.05;;
20629;SDS011;17386;43.846;25.950;2022-07-09T07:50:07;6.25;;;2.60;;
20629;SDS011;17386;43.846;25.950;2022-07-09T07:52:33;4.70;;;2.80;;
20629;SDS011;17386;43.846;25.950;2022-07-09T07:54:58;4.25;;;2.90;;
20629;SDS011;17386;43.846;25.950;2022-07-09T07:57:24;9.90;;;3.15;;
20629;SDS011;17386;43.846;25.950;2022-07-09T07:59:49;5.32;;;3.25;;
20629;SDS011;17386;43.846;25.950;2022-07-09T08:02:15;4.75;;;2.80;;
20629;SDS011;17386;43.846;25.950;2022-07-09T08:04:40;6.47;;;2.72;;
20629;SDS011;17386;43.846;25.950;2022-07-09T08:07:05;4.75;;;2.50;;
20629;SDS011;17386;43.846;25.950;2022-07-09T08:09:33;5.10;;;2.65;;
20629;SDS011;17386;43.846;25.950;2022-07-09T08:12:01;5.63;;;2.70;;
20629;SDS011;17386;43.846;25.950;2022-07-09T08:14:27;7.35;;;2.47;;
20629;SDS011;17386;43.846;25.950;2022-07-09T08:16:53;3.10;;;2.15;;
20629;SDS011;17386;43.846;25.950;2022-07-09T08:19:18;3.80;;;2.08;;
20629;SDS011;17386;43.846;25.950;2022-07-09T08:21:44;4.13;;;2.10;;
20629;SDS011;17386;43.846;25.950;2022-07-09T08:24:09;3.60;;;2.30;;
20629;SDS011;17386;43.846;25.950;2022-07-09T08:26:34;3.10;;;1.83;;
20629;SDS011;17386;43.846;25.950;2022-07-09T08:29:00;4.55;;;2.17;;
20629;SDS011;17386;43.846;25.950;2022-07-09T08:31:26;3.42;;;2.28;;
20629;SDS011;17386;43.846;25.950;2022-07-09T08:33:51;6.38;;;2.60;;
20629;SDS011;17386;43.846;25.950;2022-07-09T08:36:17;6.45;;;2.58;;
20629;SDS011;17386;43.846;25.950;2022-07-09T08:38:43;5.82;;;2.47;;
20629;SDS011;17386;43.846;25.950;2022-07-09T08:41:09;6.10;;;2.90;;
20629;SDS011;17386;43.846;25.950;2022-07-09T08:43:35;6.05;;;2.90;;
20629;SDS011;17386;43.846;25.950;2022-07-09T08:46:04;6.70;;;2.78;;
20629;SDS011;17386;43.846;25.950;2022-07-09T08:48:35;8.95;;;2.90;;
20629;SDS011;17386;43.846;25.950;2022-07-09T08:51:03;8.32;;;3.22;;
20629;SDS011;17386;43.846;25.950;2022-07-09T08:53:30;7.40;;;2.58;;
20629;SDS011;17386;43.846;25.950;2022-07-09T08:55:57;6.07;;;2.90;;
20629;SDS011;17386;43.846;25.950;2022-07-09T08:58:24;8.60;;;3.03;;
20629;SDS011;17386;43.846;25.950;2022-07-09T09:00:49;6.60;;;2.50;;
20629;SDS011;17386;43.846;25.950;2022-07-09T09:03:17;5.97;;;2.47;;
20629;SDS011;17386;43.846;25.950;2022-07-09T09:05:44;6.93;;;2.50;;
20629;SDS011;17386;43.846;25.950;2022-07-09T09:08:21;8.15;;;2.95;;
20629;SDS011;17386;43.846;25.950;2022-07-09T09:10:50;7.78;;;2.60;;
20629;SDS011;17386;43.846;25.950;2022-07-09T09:13:17;6.78;;;2.88;;
20629;SDS011;17386;43.846;25.950;2022-07-09T09:15:44;6.93;;;3.10;;
20629;SDS011;17386;43.846;25.950;2022-07-09T09:20:38;5.40;;;2.50;;
20629;SDS011;17386;43.846;25.950;2022-07-09T09:23:15;5.45;;;2.60;;
20629;SDS011;17386;43.846;25.950;2022-07-09T09:25:43;6.10;;;2.60;;
20629;SDS011;17386;43.846;25.950;2022-07-09T09:28:11;7.05;;;2.75;;
20629;SDS011;17386;43.846;25.950;2022-07-09T09:30:43;3.95;;;2.65;;
20629;SDS011;17386;43.846;25.950;2022-07-09T09:33:13;7.15;;;2.40;;
20629;SDS011;17386;43.846;25.950;2022-07-09T09:35:44;6.88;;;2.63;;
20629;SDS011;17386;43.846;25.950;2022-07-09T09:38:11;4.43;;;2.10;;
20629;SDS011;17386;43.846;25.950;2022-07-09T09:40:44;7.05;;;2.63;;
20629;SDS011;17386;43.846;25.950;2022-07-09T09:45:40;3.33;;;2.13;;
20629;SDS011;17386;43.846;25.950;2022-07-09T09:48:07;5.65;;;2.70;;
20629;SDS011;17386;43.846;25.950;2022-07-09T09:53:01;6.95;;;2.35;;
20629;SDS011;17386;43.846;25.950;2022-07-09T09:57:54;6.15;;;2.10;;
20629;SDS011;17386;43.846;25.950;2022-07-09T10:00:20;3.28;;;2.00;;
20629;SDS011;17386;43.846;25.950;2022-07-09T10:02:46;5.43;;;2.10;;
20629;SDS011;17386;43.846;25.950;2022-07-09T10:07:40;3.50;;;2.15;;
20629;SDS011;17386;43.846;25.950;2022-07-09T10:10:06;5.00;;;2.60;;
20629;SDS011;17386;43.846;25.950;2022-07-09T10:12:33;4.68;;;2.10;;
20629;SDS011;17386;43.846;25.950;2022-07-09T10:15:00;8.18;;;2.22;;
20629;SDS011;17386;43.846;25.950;2022-07-09T10:17:26;8.43;;;3.20;;
20629;SDS011;17386;43.846;25.950;2022-07-09T10:22:57;6.25;;;2.30;;
20629;SDS011;17386;43.846;25.950;2022-07-09T10:25:23;5.63;;;2.17;;
20629;SDS011;17386;43.846;25.950;2022-07-09T10:27:53;7.70;;;2.80;;
20629;SDS011;17386;43.846;25.950;2022-07-09T10:30:25;4.70;;;2.30;;
20629;SDS011;17386;43.846;25.950;2022-07-09T10:33:08;9.85;;;2.92;;
20629;SDS011;17386;43.846;25.950;2022-07-09T10:35:41;12.93;;;7.20;;
20629;SDS011;17386;43.846;25.950;2022-07-09T10:38:09;9.60;;;3.33;;
20629;SDS011;17386;43.846;25.950;2022-07-09T10:40:38;4.47;;;2.55;;
20629;SDS011;17386;43.846;25.950;2022-07-09T10:43:05;4.97;;;2.42;;
20629;SDS011;17386;43.846;25.950;2022-07-09T10:48:00;8.70;;;3.03;;
20629;SDS011;17386;43.846;25.950;2022-07-09T10:50:29;7.53;;;2.85;;
20629;SDS011;17386;43.846;25.950;2022-07-09T10:52:56;6.68;;;2.38;;
20629;SDS011;17386;43.846;25.950;2022-07-09T10:57:52;4.15;;;1.70;;
20629;SDS011;17386;43.846;25.950;2022-07-09T11:00:23;5.43;;;2.90;;
20629;SDS011;17386;43.846;25.950;2022-07-09T11:02:54;3.78;;;2.65;;
20629;SDS011;17386;43.846;25.950;2022-07-09T11:05:21;3.22;;;2.15;;
20629;SDS011;17386;43.846;25.950;2022-07-09T11:08:04;7.82;;;2.40;;
20629;SDS011;17386;43.846;25.950;2022-07-09T11:10:31;7.60;;;2.70;;
20629;SDS011;17386;43.846;25.950;2022-07-09T11:12:59;11.52;;;3.38;;
20629;SDS011;17386;43.846;25.950;2022-07-09T11:15:26;10.75;;;3.53;;
20629;SDS011;17386;43.846;25.950;2022-07-09T11:17:57;8.25;;;3.90;;
20629;SDS011;17386;43.846;25.950;2022-07-09T11:20:24;10.45;;;3.35;;
20629;SDS011;17386;43.846;25.950;2022-07-09T11:22:50;9.57;;;3.20;;
20629;SDS011;17386;43.846;25.950;2022-07-09T11:25:16;10.65;;;3.00;;
20629;SDS011;17386;43.846;25.950;2022-07-09T11:27:42;3.20;;;2.28;;
20629;SDS011;17386;43.846;25.950;2022-07-09T11:30:14;3.65;;;2.50;;
20629;SDS011;17386;43.846;25.950;2022-07-09T11:32:43;4.50;;;2.28;;
20629;SDS011;17386;43.846;25.950;2022-07-09T11:35:09;5.63;;;2.30;;
20629;SDS011;17386;43.846;25.950;2022-07-09T11:37:35;4.97;;;2.28;;
20629;SDS011;17386;43.846;25.950;2022-07-09T11:40:01;4.63;;;2.10;;
20629;SDS011;17386;43.846;25.950;2022-07-09T11:42:27;3.42;;;2.33;;
20629;SDS011;17386;43.846;25.950;2022-07-09T11:44:54;8.82;;;2.78;;
20629;SDS011;17386;43.846;25.950;2022-07-09T11:47:30;6.15;;;2.60;;
20629;SDS011;17386;43.846;25.950;2022-07-09T11:52:33;5.45;;;2.92;;
20629;SDS011;17386;43.846;25.950;2022-07-09T11:55:05;5.85;;;3.08;;
20629;SDS011;17386;43.846;25.950;2022-07-09T11:57:33;5.65;;;2.70;;
20629;SDS011;17386;43.846;25.950;2022-07-09T12:00:01;11.82;;;3.78;;
20629;SDS011;17386;43.846;25.950;2022-07-09T12:02:34;6.20;;;2.72;;
20629;SDS011;17386;43.846;25.950;2022-07-09T12:05:02;5.28;;;3.15;;
20629;SDS011;17386;43.846;25.950;2022-07-09T12:07:29;7.07;;;3.08;;
20629;SDS011;17386;43.846;25.950;2022-07-09T12:12:25;5.53;;;2.55;;
20629;SDS011;17386;43.846;25.950;2022-07-09T12:14:51;6.03;;;3.03;;
20629;SDS011;17386;43.846;25.950;2022-07-09T12:17:22;7.13;;;2.97;;
20629;SDS011;17386;43.846;25.950;2022-07-09T12:19:48;4.45;;;2.90;;
20629;SDS011;17386;43.846;25.950;2022-07-09T12:22:14;5.40;;;3.13;;
20629;SDS011;17386;43.846;25.950;2022-07-09T12:24:39;6.43;;;2.65;;
20629;SDS011;17386;43.846;25.950;2022-07-09T12:27:05;7.40;;;2.78;;
20629;SDS011;17386;43.846;25.950;2022-07-09T12:29:30;3.63;;;2.42;;
20629;SDS011;17386;43.846;25.950;2022-07-09T12:31:55;3.80;;;2.53;;
20629;SDS011;17386;43.846;25.950;2022-07-09T12:34:21;5.72;;;2.78;;
20629;SDS011;17386;43.846;25.950;2022-07-09T12:36:48;6.68;;;3.60;;
20629;SDS011;17386;43.846;25.950;2022-07-09T12:39:14;5.30;;;2.67;;
20629;SDS011;17386;43.846;25.950;2022-07-09T12:41:39;5.28;;;2.45;;
20629;SDS011;17386;43.846;25.950;2022-07-09T12:44:04;3.63;;;2.40;;
20629;SDS011;17386;43.846;25.950;2022-07-09T12:46:30;10.20;;;2.85;;
20629;SDS011;17386;43.846;25.950;2022-07-09T12:48:55;6.43;;;2.60;;
20629;SDS011;17386;43.846;25.950;2022-07-09T12:51:21;4.43;;;2.60;;
20629;SDS011;17386;43.846;25.950;2022-07-09T12:53:46;6.00;;;2.63;;
20629;SDS011;17386;43.846;25.950;2022-07-09T12:56:12;6.68;;;2.78;;
20629;SDS011;17386;43.846;25.950;2022-07-09T12:58:37;4.25;;;2.45;;
20629;SDS011;17386;43.846;25.950;2022-07-09T13:01:02;3.22;;;2.70;;
20629;SDS011;17386;43.846;25.950;2022-07-09T13:03:28;4.03;;;3.08;;
20629;SDS011;17386;43.846;25.950;2022-07-09T13:05:53;5.72;;;2.58;;
20629;SDS011;17386;43.846;25.950;2022-07-09T13:08:19;4.97;;;2.90;;
20629;SDS011;17386;43.846;25.950;2022-07-09T13:10:44;6.43;;;2.70;;
20629;SDS011;17386;43.846;25.950;2022-07-09T13:13:10;5.82;;;3.58;;
20629;SDS011;17386;43.846;25.950;2022-07-09T13:15:36;9.43;;;3.47;;
20629;SDS011;17386;43.846;25.950;2022-07-09T13:18:01;7.28;;;3.10;;
20629;SDS011;17386;43.846;25.950;2022-07-09T13:20:27;6.82;;;3.17;;
20629;SDS011;17386;43.846;25.950;2022-07-09T13:22:52;5.15;;;3.38;;
20629;SDS011;17386;43.846;25.950;2022-07-09T13:25:18;5.82;;;3.63;;
20629;SDS011;17386;43.846;25.950;2022-07-09T13:27:43;5.47;;;4.10;;
20629;SDS011;17386;43.846;25.950;2022-07-09T13:30:09;7.13;;;3.22;;
20629;SDS011;17386;43.846;25.950;2022-07-09T13:32:35;3.33;;;2.70;;
20629;SDS011;17386;43.846;25.950;2022-07-09T13:35:01;8.60;;;3.25;;
20629;SDS011;17386;43.846;25.950;2022-07-09T13:37:26;6.47;;;3.08;;
20629;SDS011;17386;43.846;25.950;2022-07-09T13:39:52;7.65;;;3.10;;
20629;SDS011;17386;43.846;25.950;2022-07-09T13:42:18;4.68;;;3.05;;
20629;SDS011;17386;43.846;25.950;2022-07-09T13:44:44;3.22;;;2.63;;
20629;SDS011;17386;43.846;25.950;2022-07-09T13:47:09;5.43;;;2.92;;
20629;SDS011;17386;43.846;25.950;2022-07-09T13:49:35;4.43;;;2.83;;
20629;SDS011;17386;43.846;25.950;2022-07-09T13:52:00;5.03;;;2.90;;
20629;SDS011;17386;43.846;25.950;2022-07-09T13:54:26;5.90;;;3.10;;
20629;SDS011;17386;43.846;25.950;2022-07-09T13:56:52;8.45;;;3.67;;
20629;SDS011;17386;43.846;25.950;2022-07-09T13:59:17;6.70;;;3.35;;
20629;SDS011;17386;43.846;25.950;2022-07-09T14:01:43;4.72;;;2.60;;
20629;SDS011;17386;43.846;25.950;2022-07-09T14:04:08;3.28;;;2.63;;
20629;SDS011;17386;43.846;25.950;2022-07-09T14:06:34;3.67;;;2.63;;
20629;SDS011;17386;43.846;25.950;2022-07-09T14:08:59;6.30;;;3.15;;
20629;SDS011;17386;43.846;25.950;2022-07-09T14:11:25;6.00;;;3.30;;
20629;SDS011;17386;43.846;25.950;2022-07-09T14:13:50;5.13;;;3.03;;
20629;SDS011;17386;43.846;25.950;2022-07-09T14:16:18;4.45;;;3.20;;
20629;SDS011;17386;43.846;25.950;2022-07-09T14:18:44;3.92;;;2.53;;
20629;SDS011;17386;43.846;25.950;2022-07-09T14:21:09;3.88;;;2.70;;
20629;SDS011;17386;43.846;25.950;2022-07-09T14:23:34;2.92;;;2.55;;
20629;SDS011;17386;43.846;25.950;2022-07-09T14:26:00;5.05;;;2.70;;
20629;SDS011;17386;43.846;25.950;2022-07-09T14:28:25;5.88;;;2.88;;
20629;SDS011;17386;43.846;25.950;2022-07-09T14:30:51;4.70;;;2.90;;
20629;SDS011;17386;43.846;25.950;2022-07-09T14:33:16;6.47;;;3.00;;
20629;SDS011;17386;43.846;25.950;2022-07-09T14:35:42;3.80;;;2.80;;
20629;SDS011;17386;43.846;25.950;2022-07-09T14:38:07;4.35;;;2.90;;
20629;SDS011;17386;43.846;25.950;2022-07-09T14:40:33;6.15;;;2.75;;
20629;SDS011;17386;43.846;25.950;2022-07-09T14:42:58;3.42;;;2.58;;
20629;SDS011;17386;43.846;25.950;2022-07-09T14:45:24;4.82;;;2.90;;
20629;SDS011;17386;43.846;25.950;2022-07-09T14:50:16;7.50;;;2.67;;
20629;SDS011;17386;43.846;25.950;2022-07-09T14:52:45;4.70;;;2.70;;
20629;SDS011;17386;43.846;25.950;2022-07-09T14:55:11;8.10;;;3.10;;
20629;SDS011;17386;43.846;25.950;2022-07-09T14:57:37;5.65;;;2.90;;
20629;SDS011;17386;43.846;25.950;2022-07-09T15:00:03;5.85;;;2.97;;
20629;SDS011;17386;43.846;25.950;2022-07-09T15:04:55;3.50;;;2.40;;
20629;SDS011;17386;43.846;25.950;2022-07-09T15:07:21;4.72;;;2.80;;
20629;SDS011;17386;43.846;25.950;2022-07-09T15:09:47;4.85;;;3.00;;